Time;durP1;ratioP1;P1;durP2;ratioP2;P2;SDS_P1;SDS_P2;PMS_P1;PMS_P2;Temp;Humidity;BMP_temperature;BMP_pressure;BME280_temperature;BME280_humidity;BME280_pressure;Samples;Min_cycle;Max_cycle;Signal;HPM_P1;HPM_P2
2022/08/17 00:02:19;;;;;;;7.40;6.70;;;20.30;96.40;;;;;;5010660;28;20195;-61
2022/08/17 00:04:45;;;;;;;7.68;6.95;;;20.30;96.50;;;;;;5010838;28;20213;-61
2022/08/17 00:07:11;;;;;;;6.30;5.80;;;20.30;96.60;;;;;;5013347;28;20187;-61
2022/08/17 00:09:36;;;;;;;7.77;7.13;;;20.30;96.40;;;;;;5012058;28;20201;-61
2022/08/17 00:12:03;;;;;;;7.70;7.10;;;20.30;96.50;;;;;;5010804;28;20226;-61
2022/08/17 00:14:29;;;;;;;7.55;6.95;;;20.20;96.70;;;;;;5011277;28;20233;-62
2022/08/17 00:16:54;;;;;;;8.27;7.03;;;20.20;96.90;;;;;;5010505;28;20198;-61
2022/08/17 00:19:23;;;;;;;6.80;6.20;;;20.10;97.10;;;;;;5010810;28;20202;-64
2022/08/17 00:21:52;;;;;;;7.85;7.15;;;20.00;97.10;;;;;;5009220;28;20269;-63
2022/08/17 00:24:19;;;;;;;6.53;6.03;;;20.00;97.30;;;;;;5012604;28;20211;-62
2022/08/17 00:26:45;;;;;;;7.80;7.10;;;20.00;97.30;;;;;;5011448;28;20269;-62
2022/08/17 00:29:12;;;;;;;6.85;6.35;;;19.90;97.40;;;;;;5011470;28;20210;-63
2022/08/17 00:31:37;;;;;;;7.35;6.75;;;20.00;97.50;;;;;;5010793;28;20187;-63
2022/08/17 00:34:05;;;;;;;7.53;6.70;;;19.90;97.40;;;;;;5011667;28;20183;-62
2022/08/17 00:36:31;;;;;;;7.50;6.70;;;19.90;97.50;;;;;;5008983;28;20187;-62
2022/08/17 00:38:56;;;;;;;7.15;6.63;;;20.00;97.40;;;;;;5009824;28;20211;-62
2022/08/17 00:41:26;;;;;;;6.97;6.40;;;20.00;97.30;;;;;;5009441;28;20660;-62
2022/08/17 00:43:58;;;;;;;10.18;6.20;;;19.90;97.60;;;;;;5011073;28;20305;-62
2022/08/17 00:46:34;;;;;;;7.30;6.60;;;19.80;97.90;;;;;;5007053;28;20187;-66
2022/08/17 00:49:00;;;;;;;7.18;6.50;;;19.80;97.60;;;;;;5011168;28;20349;-64
2022/08/17 00:51:35;;;;;;;6.53;6.03;;;19.90;97.60;;;;;;5008246;28;20727;-64
2022/08/17 00:54:10;;;;;;;7.45;6.85;;;19.80;97.70;;;;;;5010618;28;20229;-64
2022/08/17 00:56:41;;;;;;;7.13;6.20;;;19.80;97.70;;;;;;5009068;28;20244;-63
2022/08/17 00:59:08;;;;;;;7.57;6.88;;;19.80;97.60;;;;;;5007586;28;20611;-64
2022/08/17 01:01:36;;;;;;;6.90;6.38;;;19.80;97.60;;;;;;5009492;28;20209;-63
2022/08/17 01:04:03;;;;;;;7.47;6.88;;;19.80;97.60;;;;;;5007690;28;20206;-61
2022/08/17 01:06:30;;;;;;;8.32;7.63;;;19.50;97.50;;;;;;5010805;28;20603;-64
2022/08/17 01:08:58;;;;;;;6.80;6.30;;;19.80;97.70;;;;;;5009225;28;20230;-64
2022/08/17 01:11:24;;;;;;;7.50;6.90;;;19.80;97.70;;;;;;5010462;28;20190;-64
2022/08/17 01:13:50;;;;;;;7.35;6.70;;;19.70;97.70;;;;;;5010808;28;20182;-64
2022/08/17 01:16:24;;;;;;;7.23;6.53;;;19.70;97.80;;;;;;5009555;28;20233;-64
2022/08/17 01:18:53;;;;;;;7.57;6.93;;;19.80;97.80;;;;;;5010263;28;20202;-64
2022/08/17 01:21:40;;;;;;;7.30;6.47;;;19.70;97.90;;;;;;5004704;28;20548;-64
2022/08/17 01:24:07;;;;;;;8.02;7.03;;;19.70;98.00;;;;;;5009140;28;20317;-63
2022/08/17 01:26:34;;;;;;;6.10;5.50;;;19.70;98.20;;;;;;5014330;28;20186;-63
2022/08/17 01:29:02;;;;;;;7.10;6.60;;;19.60;98.30;;;;;;5010827;28;20205;-63
2022/08/17 01:31:33;;;;;;;7.60;7.00;;;19.60;98.50;;;;;;5008232;28;20187;-64
2022/08/17 01:34:03;;;;;;;7.68;7.07;;;19.50;98.50;;;;;;5010761;28;20290;-61
2022/08/17 01:36:29;;;;;;;7.32;6.72;;;19.50;98.50;;;;;;5009807;28;20607;-62
2022/08/17 01:38:55;;;;;;;8.33;7.53;;;19.50;98.70;;;;;;5004722;28;20294;-62
2022/08/17 01:41:21;;;;;;;7.20;6.60;;;19.40;98.80;;;;;;5010955;28;20549;-62
2022/08/17 01:43:52;;;;;;;7.90;7.10;;;19.40;99.20;;;;;;5010132;28;21161;-62
2022/08/17 01:46:28;;;;;;;7.30;6.65;;;19.40;99.40;;;;;;5009904;28;20273;-63
2022/08/17 01:48:56;;;;;;;7.07;6.50;;;19.30;99.10;;;;;;5006380;28;20230;-63
2022/08/17 01:51:24;;;;;;;7.60;6.90;;;19.40;99.20;;;;;;5009214;28;20795;-63
2022/08/17 01:53:54;;;;;;;8.52;6.90;;;19.30;99.10;;;;;;5009360;28;20191;-63
2022/08/17 01:56:22;;;;;;;6.68;6.07;;;19.30;99.30;;;;;;5008646;28;20188;-63
2022/08/17 01:58:48;;;;;;;7.22;6.63;;;19.30;99.40;;;;;;5007760;28;20211;-62
2022/08/17 02:01:15;;;;;;;7.70;7.10;;;19.30;99.50;;;;;;5008608;28;20700;-61
2022/08/17 02:03:41;;;;;;;8.70;7.20;;;19.30;99.40;;;;;;5008866;28;20221;-62
2022/08/17 02:06:07;;;;;;;8.05;7.43;;;19.30;99.50;;;;;;5010863;28;20182;-62
2022/08/17 02:08:34;;;;;;;7.43;6.77;;;19.20;99.60;;;;;;5009009;28;20210;-61
2022/08/17 02:11:03;;;;;;;7.68;7.07;;;19.30;99.50;;;;;;5008859;28;20187;-62
2022/08/17 02:13:30;;;;;;;9.27;8.38;;;19.10;99.60;;;;;;5002646;28;20591;-61
2022/08/17 02:15:56;;;;;;;8.07;7.47;;;19.10;99.70;;;;;;5009687;28;20632;-61
2022/08/17 02:18:22;;;;;;;7.40;6.80;;;19.10;99.90;;;;;;5003729;28;20245;-62
2022/08/17 02:20:48;;;;;;;7.67;7.00;;;19.20;99.80;;;;;;5009005;28;20524;-62
2022/08/17 02:23:14;;;;;;;7.73;7.13;;;19.20;99.70;;;;;;5009205;28;20477;-62
2022/08/17 02:25:42;;;;;;;8.00;7.30;;;19.20;99.80;;;;;;5009264;28;20183;-62
2022/08/17 02:28:09;;;;;;;7.72;7.03;;;19.30;99.80;;;;;;5008479;28;20974;-62
2022/08/17 02:30:35;;;;;;;8.07;7.47;;;19.30;99.60;;;;;;5008435;28;20187;-62
2022/08/17 02:33:01;;;;;;;8.93;7.50;;;19.30;99.60;;;;;;5004786;28;20182;-62
2022/08/17 02:35:28;;;;;;;8.33;7.73;;;19.30;99.50;;;;;;5010614;28;20270;-62
2022/08/17 02:37:53;;;;;;;8.32;7.63;;;19.20;99.80;;;;;;5009651;28;20899;-61
2022/08/17 02:40:20;;;;;;;7.60;7.00;;;19.30;99.90;;;;;;5009577;28;20262;-61
2022/08/17 02:42:46;;;;;;;7.40;6.80;;;19.30;99.80;;;;;;5009514;28;20206;-61
2022/08/17 02:45:16;;;;;;;8.10;7.40;;;19.30;99.90;;;;;;5009001;28;20183;-61
2022/08/17 02:47:42;;;;;;;7.40;6.75;;;19.30;99.80;;;;;;5009333;28;20455;-62
2022/08/17 02:50:10;;;;;;;8.05;7.45;;;19.30;99.60;;;;;;5008955;28;20175;-62
2022/08/17 02:52:38;;;;;;;7.47;6.82;;;19.40;99.70;;;;;;5008974;28;20287;-62
2022/08/17 02:55:15;;;;;;;7.93;7.28;;;19.40;99.50;;;;;;5004802;28;20206;-62
2022/08/17 02:57:41;;;;;;;8.38;7.65;;;19.30;99.50;;;;;;5006048;28;20219;-62
2022/08/17 03:00:11;;;;;;;7.57;6.97;;;19.30;99.90;;;;;;5008501;28;20218;-62
2022/08/17 03:02:42;;;;;;;7.90;7.20;;;19.30;99.90;;;;;;5013206;28;20472;-64
2022/08/17 03:05:10;;;;;;;7.78;7.05;;;19.30;99.80;;;;;;5009734;28;20175;-63
2022/08/17 03:07:37;;;;;;;7.68;7.07;;;19.40;99.70;;;;;;5008805;28;20190;-63
2022/08/17 03:10:07;;;;;;;7.10;6.50;;;19.40;99.80;;;;;;5008575;28;20179;-62
2022/08/17 03:12:36;;;;;;;8.05;7.35;;;19.30;99.90;;;;;;5001366;28;20546;-62
2022/08/17 03:15:09;;;;;;;7.20;6.50;;;19.30;99.90;;;;;;5013172;28;20190;-62
2022/08/17 03:17:34;;;;;;;7.93;7.22;;;19.30;99.80;;;;;;5012399;28;20638;-62
2022/08/17 03:20:00;;;;;;;8.73;8.07;;;19.30;99.90;;;;;;5010462;28;20210;-62
2022/08/17 03:22:27;;;;;;;8.10;7.50;;;19.30;99.90;;;;;;5010045;28;20718;-61
2022/08/17 03:24:54;;;;;;;8.27;7.68;;;19.50;99.90;;;;;;5013298;28;20183;-63
2022/08/17 03:27:19;;;;;;;8.35;7.65;;;19.30;99.90;;;;;;5013100;28;20628;-64
2022/08/17 03:29:45;;;;;;;7.53;6.83;;;19.30;99.90;;;;;;5010087;28;20226;-64
2022/08/17 03:32:12;;;;;;;7.73;7.13;;;19.30;99.90;;;;;;5011400;28;20707;-62
2022/08/17 03:34:38;;;;;;;8.43;7.75;;;19.30;99.90;;;;;;5011207;28;20183;-62
2022/08/17 03:37:03;;;;;;;7.90;7.30;;;19.30;99.90;;;;;;5013369;28;20317;-62
2022/08/17 03:39:29;;;;;;;7.97;7.37;;;19.20;99.90;;;;;;5012284;28;20207;-62
2022/08/17 03:42:22;;;;;;;6.97;6.47;;;19.20;99.90;;;;;;5011580;28;20178;-62
2022/08/17 03:44:49;;;;;;;7.38;6.78;;;19.60;99.90;;;;;;5007627;28;20482;-62
2022/08/17 03:58:10;;;;;;;7.45;6.82;;;19.20;99.90;;;;;;5004632;28;20722;-66
2022/08/17 04:00:36;;;;;;;8.20;7.33;;;19.10;99.90;;;;;;5022382;28;20188;-66
2022/08/17 04:03:03;;;;;;;7.85;7.25;;;19.10;99.90;;;;;;5009395;28;20229;-64
2022/08/17 04:05:29;;;;;;;7.85;7.10;;;19.10;99.90;;;;;;5007702;28;20191;-64
2022/08/17 04:07:55;;;;;;;8.32;7.53;;;19.10;99.90;;;;;;5001713;28;20313;-64
2022/08/17 04:10:20;;;;;;;9.00;8.20;;;19.10;99.90;;;;;;5012555;28;20696;-64
2022/08/17 04:12:49;;;;;;;8.77;8.07;;;19.00;99.90;;;;;;5012611;28;20434;-64
2022/08/17 04:15:17;;;;;;;9.18;7.68;;;19.00;99.90;;;;;;5009137;28;20943;-64
2022/08/17 04:17:43;;;;;;;8.68;7.90;;;19.00;99.90;;;;;;5010067;28;20190;-65
2022/08/17 04:20:13;;;;;;;8.43;7.72;;;18.90;99.90;;;;;;5012228;28;20225;-64
2022/08/17 04:22:53;;;;;;;8.40;7.70;;;19.00;99.90;;;;;;5009657;28;20175;-63
2022/08/17 04:25:19;;;;;;;8.10;7.40;;;18.90;99.90;;;;;;5008062;28;20179;-61
2022/08/17 04:27:45;;;;;;;8.73;8.00;;;18.90;99.90;;;;;;5006716;28;20198;-61
2022/08/17 04:30:11;;;;;;;8.27;7.57;;;18.80;99.90;;;;;;5004025;28;20469;-61
2022/08/17 04:32:51;;;;;;;8.32;7.63;;;18.80;99.90;;;;;;5005271;28;20187;-62
2022/08/17 04:35:22;;;;;;;8.50;7.80;;;18.80;99.90;;;;;;5009746;28;20186;-62
2022/08/17 04:37:48;;;;;;;7.57;6.97;;;18.90;99.90;;;;;;5007883;28;20198;-62
2022/08/17 04:43:07;;;;;;;8.52;7.82;;;19.10;99.90;;;;;;5009216;28;20253;-62
2022/08/17 04:45:36;;;;;;;7.82;7.00;;;19.10;99.90;;;;;;5006652;28;20205;-62
2022/08/17 04:48:03;;;;;;;7.82;7.13;;;19.30;99.90;;;;;;5000956;28;20199;-62
2022/08/17 04:50:28;;;;;;;7.30;6.70;;;19.40;99.90;;;;;;5010362;28;20218;-63
2022/08/17 04:52:54;;;;;;;7.93;7.23;;;19.50;99.90;;;;;;5003347;28;20253;-63
2022/08/17 04:55:20;;;;;;;7.87;7.27;;;19.70;99.90;;;;;;5008921;28;20198;-62
2022/08/17 04:57:45;;;;;;;7.30;6.80;;;19.80;99.70;;;;;;5005798;28;20238;-62
2022/08/17 05:00:11;;;;;;;7.17;6.53;;;19.80;99.30;;;;;;5007356;28;20195;-62
2022/08/17 05:02:48;;;;;;;8.00;7.40;;;19.60;99.20;;;;;;5006580;28;20727;-62
2022/08/17 05:05:27;;;;;;;8.20;7.50;;;20.00;99.10;;;;;;5008501;28;20182;-62
2022/08/17 05:07:55;;;;;;;7.85;7.25;;;20.00;98.80;;;;;;5003904;28;20206;-62
2022/08/17 05:10:22;;;;;;;8.02;7.43;;;20.00;98.60;;;;;;5001712;28;20638;-62
2022/08/17 05:13:00;;;;;;;7.63;6.70;;;20.10;98.30;;;;;;5007776;28;20191;-63
2022/08/17 05:15:27;;;;;;;6.93;6.40;;;20.10;98.20;;;;;;5004426;28;20768;-61
2022/08/17 05:17:52;;;;;;;7.05;6.40;;;20.20;98.30;;;;;;5003867;28;20213;-61
2022/08/17 05:20:18;;;;;;;8.10;7.40;;;20.30;98.20;;;;;;5005192;28;20237;-61
2022/08/17 05:22:53;;;;;;;8.70;7.27;;;20.40;97.90;;;;;;5000061;28;20194;-62
2022/08/17 05:25:24;;;;;;;7.60;7.00;;;20.40;97.40;;;;;;5007515;28;20639;-62
2022/08/17 05:27:49;;;;;;;6.80;6.30;;;20.50;97.50;;;;;;5007614;28;20249;-63
2022/08/17 05:30:16;;;;;;;8.23;7.27;;;20.90;97.80;;;;;;5005319;28;20199;-63
2022/08/17 05:32:58;;;;;;;7.78;7.18;;;20.60;97.30;;;;;;5008676;28;20576;-63
2022/08/17 05:35:26;;;;;;;9.75;8.50;;;20.80;97.20;;;;;;5006831;28;20185;-62
2022/08/17 05:37:52;;;;;;;7.72;7.03;;;20.60;97.10;;;;;;5008215;28;20210;-62
2022/08/17 05:40:20;;;;;;;8.63;7.50;;;20.50;97.20;;;;;;5004469;28;20183;-65
2022/08/17 05:42:47;;;;;;;8.02;7.43;;;20.30;97.50;;;;;;5009618;28;20195;-66
2022/08/17 05:45:15;;;;;;;8.25;7.55;;;20.60;97.60;;;;;;5003127;28;20237;-66
2022/08/17 05:47:42;;;;;;;6.20;5.60;;;20.90;97.50;;;;;;5006756;28;20181;-68
2022/08/17 05:50:13;;;;;;;7.93;7.30;;;21.10;97.10;;;;;;4999307;28;20187;-69
2022/08/17 05:52:55;;;;;;;11.43;10.35;;;21.50;96.70;;;;;;5008806;28;20213;-63
2022/08/17 05:55:58;;;;;;;7.57;6.97;;;21.70;96.20;;;;;;5009993;28;20322;-62
2022/08/17 05:58:37;;;;;;;6.27;5.77;;;21.90;95.40;;;;;;5008892;28;20461;-64
2022/08/17 06:01:20;;;;;;;8.67;7.43;;;22.10;95.20;;;;;;5007722;28;20441;-62
2022/08/17 06:03:52;;;;;;;6.83;6.33;;;22.20;94.10;;;;;;5003051;28;20978;-62
2022/08/17 06:06:49;;;;;;;6.93;6.33;;;22.60;93.90;;;;;;5010946;28;20527;-63
2022/08/17 06:09:41;;;;;;;8.83;7.50;;;22.80;92.90;;;;;;4996910;28;20462;-61
2022/08/17 06:12:14;;;;;;;8.93;8.13;;;22.90;92.60;;;;;;5011773;28;20476;-62
2022/08/17 06:14:45;;;;;;;8.53;7.70;;;22.80;92.10;;;;;;5009728;28;20439;-61
2022/08/17 06:17:17;;;;;;;8.43;7.77;;;22.60;92.20;;;;;;5004019;28;20465;-59
2022/08/17 06:19:46;;;;;;;8.67;7.97;;;22.60;92.60;;;;;;5003664;28;20468;-58
2022/08/17 06:22:15;;;;;;;8.80;7.90;;;22.60;92.80;;;;;;5002227;28;20542;-62
2022/08/17 06:24:59;;;;;;;15.23;13.93;;;22.50;92.30;;;;;;5007310;28;20532;-65
2022/08/17 06:27:34;;;;;;;11.27;10.27;;;22.60;92.40;;;;;;5001347;28;20452;-62
2022/08/17 06:30:07;;;;;;;7.23;6.63;;;22.40;92.50;;;;;;5008418;28;20452;-64
2022/08/17 06:32:37;;;;;;;9.10;6.47;;;23.00;92.60;;;;;;5005836;28;20985;-66
2022/08/17 06:35:06;;;;;;;5.97;5.40;;;23.20;92.00;;;;;;5005736;28;20773;-63
2022/08/17 06:37:52;;;;;;;5.93;5.33;;;23.30;91.70;;;;;;5010577;28;20438;-64
2022/08/17 06:40:49;;;;;;;6.00;5.50;;;23.40;91.30;;;;;;5008284;28;20441;-63
2022/08/17 06:43:53;;;;;;;6.70;6.00;;;23.60;91.20;;;;;;5008210;28;20469;-65
2022/08/17 06:46:28;;;;;;;9.70;7.00;;;23.90;90.60;;;;;;5001649;28;20449;-63
2022/08/17 06:49:13;;;;;;;10.00;7.87;;;24.20;90.50;;;;;;5003488;28;20556;-66
2022/08/17 06:51:59;;;;;;;9.47;8.30;;;24.60;89.10;;;;;;5006997;28;20442;-67
2022/08/17 06:54:56;;;;;;;8.23;7.43;;;24.80;87.60;;;;;;5010327;28;20446;-65
2022/08/17 06:57:29;;;;;;;9.60;6.60;;;25.20;85.80;;;;;;5000173;28;20440;-66
2022/08/17 06:59:59;;;;;;;8.00;7.40;;;25.30;86.00;;;;;;5010346;28;20466;-62
2022/08/17 07:02:44;;;;;;;8.33;7.57;;;25.40;83.20;;;;;;5010790;28;20581;-61
2022/08/17 07:05:11;;;;;;;9.23;8.20;;;25.70;82.90;;;;;;5010440;28;20485;-61
2022/08/17 07:10:28;;;;;;;10.60;7.87;;;26.10;81.40;;;;;;5010795;28;20475;-66
2022/08/17 07:13:01;;;;;;;10.17;9.17;;;26.30;80.80;;;;;;5009763;28;20484;-71
2022/08/17 07:15:41;;;;;;;9.07;8.17;;;26.60;80.60;;;;;;5002643;28;20445;-68
2022/08/17 07:18:07;;;;;;;10.90;8.80;;;26.80;79.90;;;;;;5008934;28;20457;-69
2022/08/17 07:20:36;;;;;;;8.77;8.00;;;27.60;79.00;;;;;;5008483;28;20435;-71
2022/08/17 07:23:19;;;;;;;8.63;7.60;;;29.40;71.30;;;;;;5000259;28;20469;-68
2022/08/17 07:25:46;;;;;;;8.40;7.60;;;30.70;64.90;;;;;;5011751;28;20484;-70
2022/08/17 07:28:12;;;;;;;8.30;7.50;;;32.20;59.70;;;;;;5010349;28;20523;-68
2022/08/17 07:30:43;;;;;;;8.20;7.50;;;33.80;56.40;;;;;;5014450;28;21038;-70
2022/08/17 07:33:13;;;;;;;8.13;7.43;;;35.50;52.20;;;;;;5010093;28;20503;-71
2022/08/17 07:35:41;;;;;;;9.30;7.70;;;36.80;48.80;;;;;;5013974;28;20529;-70
2022/08/17 07:38:28;;;;;;;8.30;7.60;;;37.70;46.70;;;;;;5003489;28;20482;-73
2022/08/17 07:41:00;;;;;;;7.10;6.50;;;37.30;44.50;;;;;;5010556;28;20449;-72
2022/08/17 07:43:38;;;;;;;7.20;6.60;;;38.70;43.00;;;;;;5009591;28;20465;-70
2022/08/17 07:48:56;;;;;;;6.90;6.30;;;40.50;38.20;;;;;;5006504;28;20536;-71
2022/08/17 07:51:30;;;;;;;7.37;6.73;;;39.50;38.40;;;;;;5010327;28;21043;-69
2022/08/17 07:54:21;;;;;;;6.80;6.20;;;36.20;40.90;;;;;;5008146;28;20559;-69
2022/08/17 07:56:51;;;;;;;7.53;6.80;;;35.80;42.80;;;;;;5005407;28;20529;-70
2022/08/17 07:59:20;;;;;;;6.47;5.87;;;35.10;43.40;;;;;;5010558;28;20481;-68
2022/08/17 08:01:55;;;;;;;8.20;7.40;;;34.40;45.10;;;;;;5008374;28;20453;-67
2022/08/17 08:04:26;;;;;;;7.80;6.77;;;32.40;47.40;;;;;;5008234;28;20994;-67
2022/08/17 08:06:54;;;;;;;7.50;6.90;;;32.00;50.20;;;;;;5006942;28;20449;-69
2022/08/17 08:09:31;;;;;;;7.57;7.07;;;31.30;49.90;;;;;;5002429;28;20481;-68
2022/08/17 08:11:59;;;;;;;7.30;6.70;;;30.90;51.70;;;;;;5002169;28;20441;-68
2022/08/17 08:14:32;;;;;;;7.40;6.90;;;30.40;52.70;;;;;;5005260;28;20561;-62
2022/08/17 08:17:05;;;;;;;7.07;6.57;;;30.70;54.10;;;;;;5003388;28;20517;-65
2022/08/17 08:19:31;;;;;;;7.53;6.93;;;30.80;53.80;;;;;;5008167;28;20541;-66
2022/08/17 08:22:20;;;;;;;7.83;7.23;;;30.60;52.40;;;;;;5002543;28;20514;-65
2022/08/17 08:25:21;;;;;;;7.40;6.83;;;30.40;53.30;;;;;;5002959;28;20527;-64
2022/08/17 08:28:17;;;;;;;6.53;6.10;;;30.20;53.40;;;;;;4969389;28;20558;-69
2022/08/17 08:30:48;;;;;;;7.97;7.37;;;29.30;55.50;;;;;;5006291;28;20451;-62
2022/08/17 08:33:53;;;;;;;7.83;7.03;;;29.20;57.20;;;;;;5005891;28;20888;-62
2022/08/17 08:36:38;;;;;;;7.27;6.77;;;28.80;56.70;;;;;;5005022;28;20442;-62
2022/08/17 08:39:20;;;;;;;9.60;7.00;;;28.30;58.60;;;;;;5024566;28;20467;-63
2022/08/17 08:42:02;;;;;;;7.17;6.67;;;28.20;60.20;;;;;;5011089;28;20452;-63
2022/08/17 08:44:58;;;;;;;7.60;6.60;;;28.00;59.60;;;;;;5010799;28;20486;-62
2022/08/17 08:47:35;;;;;;;7.97;7.33;;;27.70;60.00;;;;;;5009632;28;20464;-62
2022/08/17 08:50:12;;;;;;;7.83;7.20;;;27.60;62.50;;;;;;5008848;28;20495;-62
2022/08/17 08:53:02;;;;;;;7.23;6.57;;;27.40;62.80;;;;;;5010594;28;20807;-62
2022/08/17 08:55:55;;;;;;;8.13;7.37;;;27.20;65.10;;;;;;5010935;28;20442;-60
2022/08/17 08:58:51;;;;;;;7.73;7.13;;;26.90;65.50;;;;;;5010697;28;20446;-62
2022/08/17 09:01:49;;;;;;;7.30;6.73;;;27.00;65.30;;;;;;5003010;28;21559;-62
2022/08/17 09:04:27;;;;;;;8.43;6.47;;;26.90;67.90;;;;;;4963565;28;20474;-62
2022/08/17 09:07:30;;;;;;;7.50;6.70;;;26.90;68.10;;;;;;5008706;28;20437;-61
2022/08/17 09:10:19;;;;;;;8.33;6.50;;;26.70;68.30;;;;;;4997834;28;20461;-61
2022/08/17 09:12:58;;;;;;;6.67;6.27;;;26.60;69.10;;;;;;4975233;28;20476;-60
2022/08/17 09:15:32;;;;;;;8.63;7.40;;;26.50;69.90;;;;;;5010597;28;20448;-62
2022/08/17 09:18:05;;;;;;;6.90;6.30;;;26.50;70.60;;;;;;5009764;28;21024;-60
2022/08/17 09:20:45;;;;;;;8.03;7.33;;;26.50;70.20;;;;;;5010487;28;20449;-61
2022/08/17 09:23:41;;;;;;;10.47;7.17;;;26.30;70.30;;;;;;5009172;28;20607;-62
2022/08/17 09:26:09;;;;;;;9.20;8.10;;;26.30;72.50;;;;;;4977297;28;20475;-62
2022/08/17 09:28:38;;;;;;;8.37;7.63;;;26.40;77.10;;;;;;5010293;28;20464;-62
2022/08/17 09:31:34;;;;;;;8.40;7.60;;;26.10;79.90;;;;;;4997030;28;20438;-61
2022/08/17 09:34:07;;;;;;;9.03;8.20;;;26.00;82.80;;;;;;5010318;28;20583;-62
2022/08/17 09:36:55;;;;;;;12.20;8.70;;;25.90;86.90;;;;;;5009567;28;20535;-61
2022/08/17 09:39:40;;;;;;;9.33;8.30;;;25.80;91.40;;;;;;4999451;28;20503;-62
2022/08/17 09:42:13;;;;;;;9.90;9.00;;;25.80;93.00;;;;;;5009961;28;20477;-62
2022/08/17 09:44:53;;;;;;;8.77;8.00;;;25.70;93.80;;;;;;5010690;28;20468;-62
2022/08/17 09:47:31;;;;;;;15.57;11.57;;;25.50;92.60;;;;;;5009433;28;20510;-62
2022/08/17 09:50:06;;;;;;;9.47;8.73;;;25.30;94.00;;;;;;5008976;28;20502;-62
2022/08/17 09:52:33;;;;;;;8.57;7.87;;;25.30;94.70;;;;;;5002845;28;20527;-61
2022/08/17 09:55:00;;;;;;;8.47;7.70;;;25.40;94.40;;;;;;5006971;28;20824;-62
2022/08/17 09:57:50;;;;;;;8.23;7.27;;;25.30;93.70;;;;;;5009718;28;20522;-62
2022/08/17 10:00:20;;;;;;;8.73;7.93;;;25.20;93.70;;;;;;5008120;28;20933;-62
2022/08/17 10:03:10;;;;;;;9.43;8.53;;;25.20;95.40;;;;;;5004851;28;20462;-62
2022/08/17 10:05:38;;;;;;;9.30;8.50;;;25.00;98.30;;;;;;5009857;28;20435;-62
2022/08/17 10:08:10;;;;;;;9.07;8.10;;;24.90;97.90;;;;;;5008790;28;20454;-62
2022/08/17 10:10:57;;;;;;;8.37;7.67;;;25.00;98.00;;;;;;5009981;28;20481;-62
2022/08/17 10:14:05;;;;;;;8.73;8.03;;;25.00;98.10;;;;;;5009594;28;20440;-62
2022/08/17 10:16:42;;;;;;;7.53;6.93;;;25.00;97.80;;;;;;4917569;29;20488;-62
2022/08/17 10:19:22;;;;;;;7.03;6.53;;;25.30;96.00;;;;;;4919153;29;20555;-62
2022/08/17 10:27:42;;;;;;;6.53;5.93;;;26.10;92.40;;;;;;5013645;28;20798;-61
2022/08/17 10:30:14;;;;;;;6.70;6.20;;;26.10;90.50;;;;;;5011557;28;20437;-60
2022/08/17 10:32:48;;;;;;;6.23;5.73;;;26.10;90.40;;;;;;5013813;28;20428;-61
2022/08/17 10:35:26;;;;;;;7.03;5.40;;;26.10;90.50;;;;;;5013558;28;20450;-62
2022/08/17 10:38:11;;;;;;;7.40;6.90;;;26.20;90.40;;;;;;5007834;28;20526;-62
2022/08/17 10:40:49;;;;;;;8.70;8.00;;;26.10;93.70;;;;;;5013570;28;20792;-62
2022/08/17 10:43:21;;;;;;;8.90;8.20;;;26.30;94.90;;;;;;5004745;28;20833;-62
2022/08/17 10:46:11;;;;;;;7.90;7.30;;;26.50;94.90;;;;;;5012704;28;20441;-63
2022/08/17 10:48:38;;;;;;;9.10;8.30;;;26.60;93.90;;;;;;5000923;28;20450;-57
2022/08/17 10:51:06;;;;;;;7.90;7.40;;;26.50;95.40;;;;;;5006958;28;20520;-65
2022/08/17 10:53:31;;;;;;;8.50;7.80;;;26.20;95.00;;;;;;5002867;28;20448;-66
2022/08/17 10:56:12;;;;;;;10.07;9.37;;;26.20;95.20;;;;;;5011243;28;20445;-67
2022/08/17 10:58:52;;;;;;;6.80;6.30;;;25.90;94.50;;;;;;5009661;28;20668;-65
2022/08/17 11:01:36;;;;;;;9.33;8.10;;;25.90;93.10;;;;;;5007200;28;20561;-64
2022/08/17 11:04:17;;;;;;;8.77;8.17;;;25.80;95.10;;;;;;5003018;28;20464;-64
2022/08/17 11:07:01;;;;;;;7.97;7.23;;;25.40;95.90;;;;;;5017856;28;20444;-67
2022/08/17 11:10:12;;;;;;;8.50;7.80;;;25.40;96.00;;;;;;5008951;28;20996;-65
2022/08/17 11:12:55;;;;;;;8.70;7.70;;;25.40;95.70;;;;;;4984179;28;20973;-65
2022/08/17 11:15:31;;;;;;;6.70;5.87;;;25.40;94.90;;;;;;5009446;28;20514;-63
2022/08/17 11:18:11;;;;;;;6.13;5.60;;;25.30;93.10;;;;;;5009593;28;20537;-63
2022/08/17 11:20:55;;;;;;;5.97;5.57;;;25.10;92.30;;;;;;5009580;28;20965;-63
2022/08/17 11:23:58;;;;;;;6.07;5.57;;;25.10;92.80;;;;;;5009234;28;20475;-62
2022/08/17 11:26:30;;;;;;;5.30;4.90;;;24.70;92.20;;;;;;5007231;28;20951;-66
2022/08/17 11:29:00;;;;;;;5.73;5.23;;;24.60;93.00;;;;;;5005446;28;20560;-70
2022/08/17 11:31:36;;;;;;;6.00;5.40;;;24.80;92.70;;;;;;5000476;28;20438;-68
2022/08/17 11:34:12;;;;;;;5.63;5.13;;;24.70;92.10;;;;;;4998414;28;20986;-67
2022/08/17 11:37:03;;;;;;;5.90;5.43;;;24.70;91.70;;;;;;5005573;28;20444;-66
2022/08/17 11:40:05;;;;;;;7.03;6.33;;;24.80;91.60;;;;;;5006812;28;20482;-63
2022/08/17 11:42:46;;;;;;;6.90;6.40;;;24.40;94.80;;;;;;5010508;28;20437;-66
2022/08/17 11:45:36;;;;;;;6.27;5.77;;;24.30;95.50;;;;;;5006161;28;20954;-64
2022/08/17 11:51:43;;;;;;;6.40;5.80;;;24.00;96.80;;;;;;5009761;28;20564;-63
2022/08/17 11:54:38;;;;;;;5.97;5.50;;;23.80;96.20;;;;;;5008954;28;20462;-65
2022/08/17 11:57:25;;;;;;;6.30;5.70;;;24.00;96.60;;;;;;5008598;28;20631;-64
2022/08/17 11:59:59;;;;;;;6.73;6.10;;;24.00;96.70;;;;;;5008762;28;20534;-68
2022/08/17 12:02:31;;;;;;;6.07;5.47;;;24.10;96.50;;;;;;5009487;28;20527;-67
2022/08/17 12:05:15;;;;;;;6.50;6.00;;;24.10;96.60;;;;;;5009538;28;20454;-66
2022/08/17 12:08:06;;;;;;;7.00;6.40;;;24.20;97.00;;;;;;4991432;28;20861;-66
2022/08/17 12:10:35;;;;;;;6.57;6.07;;;24.20;97.90;;;;;;4992673;28;20434;-68
2022/08/17 12:13:14;;;;;;;7.40;6.80;;;24.10;98.10;;;;;;5007724;28;20473;-67
2022/08/17 12:15:49;;;;;;;7.07;6.43;;;24.10;98.40;;;;;;4995866;28;20493;-66
2022/08/17 12:18:36;;;;;;;6.90;6.40;;;24.10;98.80;;;;;;5006370;28;20461;-65
2022/08/17 12:21:50;;;;;;;6.80;6.20;;;24.40;97.80;;;;;;5003208;28;20850;-64
2022/08/17 12:24:34;;;;;;;8.53;7.10;;;24.40;96.70;;;;;;4908336;29;20561;-66
2022/08/17 12:27:03;;;;;;;6.60;6.00;;;24.40;96.60;;;;;;4906875;29;20439;-66
2022/08/17 12:29:31;;;;;;;6.80;6.30;;;24.50;96.60;;;;;;4971399;28;20449;-66
2022/08/17 12:31:57;;;;;;;7.90;7.30;;;24.70;96.20;;;;;;5005887;28;20445;-67
2022/08/17 12:34:34;;;;;;;7.80;7.13;;;24.70;95.60;;;;;;5008158;28;20469;-66
2022/08/17 12:37:06;;;;;;;8.20;7.40;;;24.60;95.60;;;;;;5008783;28;20446;-69
2022/08/17 12:39:32;;;;;;;6.80;6.20;;;24.80;95.50;;;;;;5008577;28;21647;-62
2022/08/17 12:41:59;;;;;;;6.90;6.40;;;24.70;94.90;;;;;;5009622;28;20591;-66
2022/08/17 12:44:28;;;;;;;8.17;6.90;;;24.90;94.60;;;;;;5008524;28;20198;-63
2022/08/17 12:46:58;;;;;;;8.37;7.57;;;25.00;93.80;;;;;;4999113;28;20447;-70
2022/08/17 12:49:28;;;;;;;7.27;6.57;;;25.20;93.40;;;;;;5006323;28;20989;-67
2022/08/17 12:52:01;;;;;;;7.47;6.77;;;25.30;93.10;;;;;;5010454;28;20454;-67
2022/08/17 12:54:49;;;;;;;6.37;5.87;;;25.80;93.20;;;;;;5006546;28;20624;-64
2022/08/17 12:57:25;;;;;;;7.27;6.40;;;25.80;92.20;;;;;;5019235;28;20480;-68
2022/08/17 12:59:58;;;;;;;6.20;5.70;;;26.20;91.40;;;;;;5007980;28;20500;-67
2022/08/17 13:02:37;;;;;;;7.80;7.10;;;26.40;90.00;;;;;;5007879;28;20496;-67
2022/08/17 13:05:05;;;;;;;6.40;5.90;;;26.70;85.90;;;;;;5005891;28;20469;-68
2022/08/17 13:07:35;;;;;;;6.90;6.17;;;27.00;81.40;;;;;;5005453;28;20446;-70
2022/08/17 13:10:01;;;;;;;6.40;5.90;;;27.40;81.50;;;;;;5007544;28;20437;-70
2022/08/17 13:12:34;;;;;;;7.73;7.13;;;27.50;78.20;;;;;;5008225;28;20960;-70
2022/08/17 13:15:00;;;;;;;6.83;6.23;;;27.70;76.70;;;;;;5005699;28;20491;-63
2022/08/17 13:17:31;;;;;;;6.80;6.20;;;27.60;76.40;;;;;;5006135;28;20786;-67
2022/08/17 13:19:57;;;;;;;6.33;5.30;;;27.80;74.90;;;;;;5008393;28;20462;-69
2022/08/17 13:22:26;;;;;;;6.57;5.97;;;27.80;69.70;;;;;;5007779;28;20460;-68
2022/08/17 13:24:56;;;;;;;8.03;5.87;;;27.70;73.30;;;;;;5005473;28;20505;-69
2022/08/17 13:27:25;;;;;;;7.07;6.07;;;27.80;72.00;;;;;;5007775;28;20434;-69
2022/08/17 13:29:59;;;;;;;6.10;5.60;;;27.70;70.80;;;;;;5000594;28;20466;-69
2022/08/17 13:32:37;;;;;;;5.93;5.50;;;27.80;71.50;;;;;;5008799;28;20465;-62
2022/08/17 13:35:38;;;;;;;6.27;5.67;;;27.80;70.70;;;;;;5002930;28;20444;-63
2022/08/17 13:38:09;;;;;;;7.23;6.53;;;28.00;70.50;;;;;;5003392;28;20477;-65
2022/08/17 13:40:36;;;;;;;6.40;5.90;;;28.20;69.00;;;;;;5008560;28;20442;-65
2022/08/17 13:43:02;;;;;;;5.13;4.80;;;28.20;68.90;;;;;;4996292;28;20486;-65
2022/08/17 13:45:31;;;;;;;5.03;4.73;;;28.30;65.80;;;;;;5004426;28;20475;-60
2022/08/17 13:48:07;;;;;;;6.17;4.90;;;28.30;66.70;;;;;;5008409;28;20198;-66
2022/08/17 13:50:39;;;;;;;5.67;5.17;;;27.90;65.20;;;;;;5008351;28;20426;-66